Houghton Lake, Michigan
Current Conditions -  °F | °C
As of 3:53 AM on Monday 20 Oct 2014 (Local Time) from KHTL Reporting Station
Overcast Overcast  
Wind Chill: 43°   Ceiling: 800
Heat Index: 47°   Visibility: 10mi
Dew Point: 44°   Wind: 8mph
Humidity: 90%   Direction: 210°SSW
Pressure: 29.78"   Gusts: NA
Location:  44.31°N, 84.76°W
Report Text: KHTL 200753Z AUTO 21007KT 10SM OVC008 08/07 A2978 RMK AO2 SLP090 T00830067
Loading
Personal Weather Stations






























Interactive Weather Map
Tropical Storm Tracking
New forecast layout! Learn more

10-Day Weather Forecast

Advertisements
Track Severe Weather on mobile